createdAt,value
2019-02-05T00:00:10.312Z,34.60
2019-02-05T00:01:10.294Z,37.50
2019-02-05T00:03:04.126Z,38.90
2019-02-05T00:04:03.898Z,42.00
2019-02-05T00:05:57.018Z,36.50
2019-02-05T00:06:57.248Z,33.30
2019-02-05T00:08:49.823Z,31.90
2019-02-05T00:09:49.329Z,32.50
2019-02-05T00:11:42.979Z,31.00
2019-02-05T00:12:42.700Z,33.90
2019-02-05T00:14:36.076Z,32.30
2019-02-05T00:15:35.284Z,25.90
2019-02-05T00:17:27.370Z,32.80
2019-02-05T00:18:27.558Z,30.60
2019-02-05T00:20:21.085Z,29.50
2019-02-05T00:21:20.711Z,27.90
2019-02-05T00:23:14.292Z,29.70
2019-02-05T00:24:14.290Z,31.80
2019-02-05T00:26:06.876Z,33.30
2019-02-05T00:27:06.586Z,30.50
2019-02-05T00:28:58.726Z,27.50
2019-02-05T00:29:58.903Z,30.50
2019-02-05T00:31:52.518Z,29.20
2019-02-05T00:32:52.066Z,31.30
2019-02-05T00:34:44.591Z,30.20
2019-02-05T00:35:44.611Z,26.00
2019-02-05T00:37:38.726Z,29.30
2019-02-05T00:38:38.491Z,32.70
2019-02-05T00:40:30.811Z,31.80
2019-02-05T00:41:30.854Z,30.50
2019-02-05T00:43:24.186Z,25.80
2019-02-05T00:44:24.181Z,30.20
2019-02-05T00:46:17.528Z,26.80
2019-02-05T00:47:17.544Z,33.50
2019-02-05T00:49:09.774Z,30.50
2019-02-05T00:50:09.628Z,28.30
2019-02-05T00:52:02.205Z,26.80
2019-02-05T00:53:01.927Z,28.10
2019-02-05T00:54:55.765Z,29.00
2019-02-05T00:55:55.512Z,28.70
2019-02-05T00:57:48.876Z,30.80
2019-02-05T00:58:48.620Z,32.60
2019-02-05T01:00:42.409Z,27.90
2019-02-05T01:01:41.962Z,25.90
2019-02-05T01:03:35.572Z,27.00
2019-02-05T01:04:35.352Z,26.60
2019-02-05T01:06:27.888Z,29.60
2019-02-05T01:07:27.917Z,29.40
2019-02-05T01:09:20.237Z,28.30
2019-02-05T01:10:20.221Z,26.40
2019-02-05T01:12:12.890Z,29.20
2019-02-05T01:13:12.692Z,28.60
2019-02-05T01:15:05.836Z,28.90
2019-02-05T01:16:05.295Z,29.00
2019-02-05T01:17:58.582Z,27.60
2019-02-05T01:18:58.605Z,23.40
2019-02-05T01:20:50.688Z,26.50
2019-02-05T01:21:50.937Z,25.50
2019-02-05T01:23:44.252Z,27.10
2019-02-05T01:24:44.279Z,25.60
2019-02-05T01:26:36.654Z,26.90
2019-02-05T01:27:36.388Z,27.50
2019-02-05T01:29:30.203Z,24.80
2019-02-05T01:30:29.965Z,23.00
2019-02-05T01:32:22.093Z,22.60
2019-02-05T01:33:22.055Z,23.80
2019-02-05T01:35:15.667Z,25.30
2019-02-05T01:36:15.430Z,29.60
2019-02-05T01:38:09.004Z,27.40
2019-02-05T01:39:08.742Z,25.80
2019-02-05T01:41:02.320Z,23.60
2019-02-05T01:42:02.091Z,27.00
2019-02-05T01:43:55.691Z,28.50
2019-02-05T01:44:55.720Z,26.70
2019-02-05T01:46:49.028Z,33.50
2019-02-05T01:47:48.783Z,27.50
2019-02-05T01:49:40.867Z,29.80
2019-02-05T01:50:40.852Z,33.80
2019-02-05T01:52:33.760Z,30.20
2019-02-05T01:53:33.535Z,28.40
2019-02-05T01:55:26.893Z,25.20
2019-02-05T01:56:26.904Z,24.80
2019-02-05T01:58:19.658Z,33.50
2019-02-05T01:59:19.635Z,32.90
2019-02-05T02:01:11.744Z,32.60
2019-02-05T02:02:11.971Z,32.30
2019-02-05T02:04:05.536Z,27.20
2019-02-05T02:05:05.077Z,26.50
2019-02-05T02:06:57.440Z,30.40
2019-02-05T02:07:57.642Z,29.20
2019-02-05T02:09:50.166Z,27.40
2019-02-05T02:10:49.967Z,29.30
2019-02-05T02:12:43.337Z,31.20
2019-02-05T02:13:43.112Z,30.50
2019-02-05T02:15:35.741Z,26.90
2019-02-05T02:16:35.794Z,27.20
2019-02-05T02:18:27.746Z,25.00
2019-02-05T02:19:27.997Z,27.40
2019-02-05T02:21:21.581Z,23.20
2019-02-05T02:22:21.085Z,26.20
2019-02-05T02:24:13.458Z,25.60
2019-02-05T02:25:13.673Z,26.40
2019-02-05T02:27:05.949Z,27.10
2019-02-05T02:28:06.015Z,27.70
2019-02-05T02:29:58.114Z,20.70
2019-02-05T02:30:58.319Z,22.70
2019-02-05T02:32:51.957Z,23.90
2019-02-05T02:33:51.694Z,25.80
2019-02-05T02:35:44.420Z,26.90
2019-02-05T02:36:44.161Z,24.20
2019-02-05T02:38:37.473Z,26.30
2019-02-05T02:39:37.231Z,23.60
2019-02-05T02:41:30.346Z,27.10
2019-02-05T02:42:30.607Z,24.70
2019-02-05T02:44:24.149Z,25.30
2019-02-05T02:45:23.925Z,25.20
2019-02-05T02:47:16.670Z,26.10
2019-02-05T02:48:16.620Z,25.50
2019-02-05T02:50:08.958Z,23.20
2019-02-05T02:51:08.952Z,22.90
2019-02-05T02:53:01.317Z,24.20
2019-02-05T02:54:01.294Z,20.90
2019-02-05T02:55:53.643Z,22.40
2019-02-05T02:57:04.387Z,19.90
2019-02-05T02:58:46.998Z,23.20
2019-02-05T02:59:47.019Z,23.30
2019-02-05T03:01:39.287Z,21.40
2019-02-05T03:02:39.323Z,23.70
2019-02-05T03:04:31.411Z,24.60
2019-02-05T03:05:31.655Z,23.80
2019-02-05T03:07:25.185Z,22.70
2019-02-05T03:08:24.746Z,24.40
2019-02-05T03:10:18.351Z,22.70
2019-02-05T03:11:18.324Z,23.90
2019-02-05T03:13:11.381Z,25.30
2019-02-05T03:14:10.773Z,21.10
2019-02-05T03:16:03.993Z,21.80
2019-02-05T03:17:03.101Z,24.10
2019-02-05T03:18:55.660Z,21.30
2019-02-05T03:19:55.694Z,22.60
2019-02-05T03:21:47.780Z,23.40
2019-02-05T03:22:48.024Z,22.20
2019-02-05T03:24:41.604Z,20.30
2019-02-05T03:25:41.109Z,23.60
2019-02-05T03:27:33.468Z,23.40
2019-02-05T03:28:33.459Z,22.60
2019-02-05T03:30:26.091Z,24.20
2019-02-05T03:31:26.017Z,24.80
2019-02-05T03:33:19.408Z,23.10
2019-02-05T03:34:19.405Z,25.50
2019-02-05T03:36:13.532Z,23.70
2019-02-05T03:37:12.733Z,25.20
2019-02-05T03:39:05.052Z,24.10
2019-02-05T03:40:05.078Z,23.30
2019-02-05T03:41:57.471Z,23.60
2019-02-05T03:42:57.485Z,25.30
2019-02-05T03:44:49.587Z,23.10
2019-02-05T03:45:49.838Z,24.00
2019-02-05T03:47:42.306Z,20.30
2019-02-05T03:48:41.874Z,22.20
2019-02-05T03:50:34.482Z,17.50
2019-02-05T03:51:34.245Z,19.80
2019-02-05T03:53:28.031Z,18.60
2019-02-05T03:54:27.843Z,24.10
2019-02-05T03:56:21.190Z,26.50
2019-02-05T03:57:30.735Z,27.60
2019-02-05T03:59:13.337Z,26.50
2019-02-05T04:00:13.136Z,25.10
2019-02-05T04:02:05.496Z,22.30
2019-02-05T04:03:05.468Z,21.80
2019-02-05T04:04:57.996Z,17.90
2019-02-05T04:05:57.822Z,21.40
2019-02-05T04:07:50.528Z,18.60
2019-02-05T04:08:50.410Z,21.00
2019-02-05T04:10:43.687Z,20.70
2019-02-05T04:11:43.521Z,19.70
2019-02-05T04:13:35.866Z,18.10
2019-02-05T04:14:36.074Z,17.60
2019-02-05T04:16:28.481Z,17.00
2019-02-05T04:17:27.928Z,18.20
2019-02-05T04:19:20.005Z,19.70
2019-02-05T04:20:20.250Z,17.60
2019-02-05T04:22:13.584Z,17.60
2019-02-05T04:23:13.349Z,15.90
2019-02-05T04:25:05.855Z,18.10
2019-02-05T04:26:05.894Z,17.50
2019-02-05T04:27:58.236Z,17.90
2019-02-05T04:28:58.294Z,17.70
2019-02-05T04:30:50.609Z,17.10
2019-02-05T04:31:50.549Z,18.20
2019-02-05T04:33:44.175Z,15.50
2019-02-05T04:34:43.935Z,17.80
2019-02-05T04:36:36.015Z,17.60
2019-02-05T04:37:36.048Z,13.90
2019-02-05T04:39:30.124Z,15.30
2019-02-05T04:40:30.132Z,15.30
2019-02-05T04:42:22.490Z,16.70
2019-02-05T04:43:22.225Z,15.40
2019-02-05T04:45:16.052Z,13.40
2019-02-05T04:46:15.832Z,13.50
2019-02-05T04:48:08.953Z,14.90
2019-02-05T04:49:08.961Z,15.60
2019-02-05T04:51:01.851Z,14.20
2019-02-05T04:52:01.503Z,18.30
2019-02-05T04:53:53.153Z,15.20
2019-02-05T04:54:53.380Z,17.10
2019-02-05T04:56:46.963Z,13.00
2019-02-05T04:57:56.928Z,14.40
2019-02-05T04:59:38.800Z,15.40
2019-02-05T05:00:39.028Z,14.10
2019-02-05T05:02:32.600Z,12.10
2019-02-05T05:03:33.880Z,14.10
2019-02-05T05:05:24.455Z,14.70
2019-02-05T05:06:24.730Z,15.10
2019-02-05T05:08:18.204Z,15.90
2019-02-05T05:09:17.799Z,19.80
2019-02-05T05:11:10.391Z,13.40
2019-02-05T05:12:10.355Z,13.10
2019-02-05T05:14:02.916Z,11.90
2019-02-05T05:15:02.706Z,12.40
2019-02-05T05:16:56.031Z,14.40
2019-02-05T05:17:55.814Z,12.90
2019-02-05T05:19:48.407Z,11.80
2019-02-05T05:20:48.167Z,11.90
2019-02-05T05:22:41.785Z,13.00
2019-02-05T05:23:41.742Z,12.50
2019-02-05T05:25:34.348Z,11.80
2019-02-05T05:26:33.863Z,11.80
2019-02-05T05:28:26.200Z,16.40
2019-02-05T05:29:26.167Z,12.30
2019-02-05T05:31:18.974Z,11.30
2019-02-05T05:32:18.495Z,12.30
2019-02-05T05:34:11.444Z,10.20
2019-02-05T05:35:11.173Z,9.70
2019-02-05T05:37:04.714Z,12.00
2019-02-05T05:38:04.791Z,11.90
2019-02-05T05:39:57.161Z,15.10
2019-02-05T05:40:57.120Z,11.50
2019-02-05T05:42:49.729Z,15.50
2019-02-05T05:43:49.228Z,14.20
2019-02-05T05:45:41.777Z,12.20
2019-02-05T05:46:41.534Z,10.50
2019-02-05T05:48:34.117Z,12.40
2019-02-05T05:49:33.868Z,11.90
2019-02-05T05:51:27.238Z,10.70
2019-02-05T05:52:27.217Z,10.30
2019-02-05T05:54:20.062Z,10.30
2019-02-05T05:55:19.838Z,9.60
2019-02-05T05:57:12.961Z,8.70
2019-02-05T05:58:22.405Z,11.20
2019-02-05T06:00:06.053Z,10.70
2019-02-05T06:01:05.835Z,10.50
2019-02-05T06:02:57.948Z,9.10
2019-02-05T06:03:58.187Z,12.20
2019-02-05T06:05:51.769Z,10.40
2019-02-05T06:06:51.301Z,9.80
2019-02-05T06:08:43.984Z,9.10
2019-02-05T06:09:43.987Z,12.00
2019-02-05T06:11:37.587Z,8.90
2019-02-05T06:12:37.139Z,8.40
2019-02-05T06:14:29.743Z,9.40
2019-02-05T06:15:29.709Z,10.70
2019-02-05T06:17:23.054Z,6.70
2019-02-05T06:18:23.044Z,8.00
2019-02-05T06:20:15.123Z,11.20
2019-02-05T06:21:15.380Z,8.00
2019-02-05T06:23:08.934Z,7.80
2019-02-05T06:24:08.722Z,9.50
2019-02-05T06:26:01.073Z,10.10
2019-02-05T06:27:00.793Z,11.00
2019-02-05T06:28:54.624Z,8.60
2019-02-05T06:29:54.373Z,9.30
2019-02-05T06:31:47.762Z,8.70
2019-02-05T06:32:47.485Z,6.70
2019-02-05T06:34:40.310Z,8.80
2019-02-05T06:35:39.825Z,8.70
2019-02-05T06:37:32.901Z,7.80
2019-02-05T06:38:32.902Z,8.90
2019-02-05T06:40:26.961Z,7.40
2019-02-05T06:41:26.752Z,7.80
2019-02-05T06:43:18.869Z,8.00
2019-02-05T06:44:19.049Z,9.60
2019-02-05T06:46:12.400Z,8.50
2019-02-05T06:47:12.418Z,8.40
2019-02-05T06:49:04.549Z,8.80
2019-02-05T06:50:04.502Z,9.20
2019-02-05T06:51:57.323Z,10.50
2019-02-05T06:52:56.847Z,6.20
2019-02-05T06:54:50.481Z,7.70
2019-02-05T06:55:50.496Z,6.80
2019-02-05T06:57:42.609Z,7.80
2019-02-05T06:58:46.404Z,7.20
2019-02-05T07:00:35.373Z,8.60
2019-02-05T07:01:34.763Z,7.10
2019-02-05T07:03:28.154Z,7.60
2019-02-05T07:04:28.108Z,7.80
2019-02-05T07:06:20.454Z,8.80
2019-02-05T07:07:20.480Z,5.50
2019-02-05T07:09:13.402Z,7.60
2019-02-05T07:10:12.943Z,6.40
2019-02-05T07:12:05.243Z,9.10
2019-02-05T07:13:05.258Z,6.30
2019-02-05T07:14:58.769Z,7.10
2019-02-05T07:15:58.588Z,5.90
2019-02-05T07:17:51.153Z,6.00
2019-02-05T07:18:51.151Z,9.10
2019-02-05T07:20:44.698Z,5.90
2019-02-05T07:21:44.530Z,6.40
2019-02-05T07:23:36.883Z,6.00
2019-02-05T07:24:36.840Z,6.70
2019-02-05T07:26:29.458Z,4.80
2019-02-05T07:27:28.940Z,7.10
2019-02-05T07:29:21.504Z,7.10
2019-02-05T07:30:21.536Z,6.30
2019-02-05T07:32:15.132Z,5.40
2019-02-05T07:33:14.620Z,6.90
2019-02-05T07:35:07.244Z,8.40
2019-02-05T07:36:06.950Z,5.50
2019-02-05T07:37:59.793Z,5.10
2019-02-05T07:38:59.651Z,7.20
2019-02-05T07:40:52.001Z,7.30
2019-02-05T07:41:51.736Z,5.90
2019-02-05T07:43:45.278Z,6.10
2019-02-05T07:44:45.050Z,6.80
2019-02-05T07:46:37.526Z,6.00
2019-02-05T07:47:37.616Z,6.60
2019-02-05T07:49:30.077Z,5.30
2019-02-05T07:50:29.856Z,5.10
2019-02-05T07:52:23.488Z,5.30
2019-02-05T07:53:23.214Z,5.20
2019-02-05T07:55:16.805Z,7.20
2019-02-05T07:56:16.782Z,6.60
2019-02-05T07:58:08.928Z,5.00
2019-02-05T07:59:10.518Z,5.10
2019-02-05T08:01:02.501Z,5.10
2019-02-05T08:02:02.507Z,5.90
2019-02-05T08:03:54.556Z,7.20
2019-02-05T08:04:54.602Z,5.40
2019-02-05T08:06:48.434Z,5.10
2019-02-05T08:07:48.163Z,4.90
2019-02-05T08:09:40.248Z,6.30
2019-02-05T08:10:40.486Z,6.50
2019-02-05T08:12:32.809Z,6.70
2019-02-05T08:13:32.557Z,8.40
2019-02-05T08:15:26.167Z,6.30
2019-02-05T08:16:26.176Z,4.90
2019-02-05T08:18:19.488Z,8.00
2019-02-05T08:19:19.512Z,7.90
2019-02-05T08:21:11.814Z,5.20
2019-02-05T08:22:11.600Z,5.30
2019-02-05T08:24:04.157Z,6.50
2019-02-05T08:25:04.142Z,5.60
2019-02-05T08:26:56.584Z,4.10
2019-02-05T08:27:56.288Z,5.60
2019-02-05T08:29:50.073Z,5.70
2019-02-05T08:30:49.605Z,6.80
2019-02-05T08:32:42.204Z,4.30
2019-02-05T08:33:42.180Z,4.60
2019-02-05T08:35:34.634Z,4.50
2019-02-05T08:36:34.700Z,4.30
2019-02-05T08:38:26.790Z,3.90
2019-02-05T08:39:26.766Z,5.50
2019-02-05T08:41:21.127Z,5.10
2019-02-05T08:42:20.601Z,5.50
2019-02-05T08:44:13.210Z,5.90
2019-02-05T08:45:14.305Z,4.60
2019-02-05T08:47:05.780Z,5.20
2019-02-05T08:48:05.315Z,5.60
2019-02-05T08:49:57.921Z,3.90
2019-02-05T08:50:57.646Z,4.20
2019-02-05T08:52:51.220Z,4.90
2019-02-05T08:53:51.002Z,5.40
2019-02-05T08:55:43.558Z,4.60
2019-02-05T08:56:43.580Z,4.50
2019-02-05T08:58:36.842Z,5.50
2019-02-05T08:59:36.902Z,5.90
2019-02-05T09:01:29.095Z,5.50
2019-02-05T09:02:29.265Z,5.40
2019-02-05T09:04:22.800Z,8.10
2019-02-05T09:05:22.549Z,4.90
2019-02-05T09:07:14.657Z,4.40
2019-02-05T09:08:14.953Z,5.80
2019-02-05T09:10:08.555Z,4.70
2019-02-05T09:11:08.011Z,4.20
2019-02-05T09:13:01.627Z,4.20
2019-02-05T09:14:10.517Z,4.70
2019-02-05T09:15:54.094Z,4.70
2019-02-05T09:16:53.682Z,5.70
2019-02-05T09:18:46.017Z,3.60
2019-02-05T09:19:46.244Z,4.90
2019-02-05T09:21:38.823Z,5.90
2019-02-05T09:22:38.606Z,4.70
2019-02-05T09:24:31.705Z,4.60
2019-02-05T09:25:31.721Z,7.30
2019-02-05T09:27:24.518Z,7.40
2019-02-05T09:28:24.032Z,8.60
2019-02-05T09:30:16.420Z,5.40
2019-02-05T09:31:16.406Z,5.20
2019-02-05T09:33:10.207Z,4.80
2019-02-05T09:34:09.740Z,6.20
2019-02-05T09:36:03.097Z,4.50
2019-02-05T09:37:03.319Z,3.90
2019-02-05T09:38:55.801Z,3.80
2019-02-05T09:39:55.601Z,4.20
2019-02-05T09:41:48.913Z,6.00
2019-02-05T09:42:48.911Z,7.20
2019-02-05T09:44:42.711Z,5.70
2019-02-05T09:45:42.508Z,5.10
2019-02-05T09:47:34.592Z,4.20
2019-02-05T09:48:34.609Z,3.80
2019-02-05T09:50:30.813Z,7.30
2019-02-05T09:51:28.161Z,6.70
2019-02-05T09:53:21.574Z,4.40
2019-02-05T09:54:21.507Z,5.50
2019-02-05T09:56:14.451Z,4.80
2019-02-05T09:57:13.944Z,7.00
2019-02-05T09:59:06.533Z,7.10
2019-02-05T10:00:06.280Z,6.60
2019-02-05T10:01:59.072Z,6.40
2019-02-05T10:02:58.653Z,5.20
2019-02-05T10:04:51.807Z,4.00
2019-02-05T10:05:51.008Z,3.40
2019-02-05T10:07:44.691Z,5.70
2019-02-05T10:08:44.308Z,5.50
2019-02-05T10:10:36.687Z,6.80
2019-02-05T10:11:36.676Z,6.20
2019-02-05T10:13:30.207Z,3.90
2019-02-05T10:14:30.041Z,4.40
2019-02-05T10:16:22.738Z,4.50
2019-02-05T10:17:22.585Z,4.30
2019-02-05T10:19:15.898Z,4.50
2019-02-05T10:20:15.684Z,3.50
2019-02-05T10:22:08.023Z,5.60
2019-02-05T10:23:08.257Z,4.10
2019-02-05T10:25:00.818Z,5.20
2019-02-05T10:26:00.565Z,6.20
2019-02-05T10:27:53.731Z,7.80
2019-02-05T10:28:53.700Z,4.30
2019-02-05T10:30:46.226Z,5.20
2019-02-05T10:31:46.002Z,5.00
2019-02-05T10:33:38.620Z,4.80
2019-02-05T10:34:38.573Z,6.00
2019-02-05T10:36:30.383Z,5.80
2019-02-05T10:37:30.228Z,6.70
2019-02-05T10:39:22.879Z,5.10
2019-02-05T10:40:22.860Z,4.80
2019-02-05T10:42:15.764Z,7.30
2019-02-05T10:43:15.496Z,7.90
2019-02-05T10:45:07.838Z,4.90
2019-02-05T10:46:08.065Z,4.80
2019-02-05T10:48:00.712Z,7.20
2019-02-05T10:49:03.173Z,4.50
2019-02-05T10:50:53.137Z,4.60
2019-02-05T10:51:53.081Z,4.90
2019-02-05T10:53:45.416Z,6.90
2019-02-05T10:54:45.175Z,3.80
2019-02-05T10:56:37.801Z,3.90
2019-02-05T10:57:37.782Z,6.00
2019-02-05T10:59:30.369Z,5.10
2019-02-05T11:00:30.088Z,5.10
2019-02-05T11:02:22.209Z,4.70
2019-02-05T11:03:22.213Z,5.20
2019-02-05T11:05:14.771Z,6.90
2019-02-05T11:06:14.550Z,4.30
2019-02-05T11:08:07.034Z,9.90
2019-02-05T11:09:07.002Z,5.70
2019-02-05T11:11:00.315Z,10.00
2019-02-05T11:12:00.373Z,6.30
2019-02-05T11:13:52.449Z,4.70
2019-02-05T11:14:52.681Z,4.90
2019-02-05T11:16:45.997Z,5.40
2019-02-05T11:17:46.003Z,8.00
2019-02-05T11:19:38.354Z,5.30
2019-02-05T11:20:38.381Z,4.40
2019-02-05T11:22:31.864Z,6.10
2019-02-05T11:23:31.440Z,6.30
2019-02-05T11:25:24.081Z,6.20
2019-02-05T11:26:24.071Z,6.30
2019-02-05T11:28:16.627Z,6.20
2019-02-05T11:29:16.350Z,7.70
2019-02-05T11:31:08.510Z,8.60
2019-02-05T11:32:08.718Z,5.00
2019-02-05T11:34:01.032Z,7.20
2019-02-05T11:35:01.100Z,8.40
2019-02-05T11:36:54.787Z,5.70
2019-02-05T11:37:54.189Z,7.90
2019-02-05T11:39:48.011Z,6.90
2019-02-05T11:40:47.522Z,8.60
2019-02-05T11:42:40.126Z,7.20
2019-02-05T11:43:40.077Z,4.80
2019-02-05T11:45:33.663Z,5.40
2019-02-05T11:46:33.431Z,5.00
2019-02-05T11:48:26.154Z,6.30
2019-02-05T11:49:26.083Z,5.30
2019-02-05T11:51:19.444Z,5.20
2019-02-05T11:52:19.224Z,6.40
2019-02-05T11:54:12.181Z,6.50
2019-02-05T11:55:12.183Z,6.50
2019-02-05T11:57:05.485Z,5.60
2019-02-05T11:58:05.556Z,5.40
2019-02-05T11:59:58.900Z,5.40
2019-02-05T12:00:58.844Z,7.10
2019-02-05T12:02:51.389Z,6.00
2019-02-05T12:03:51.211Z,5.60
2019-02-05T12:05:43.288Z,6.50
2019-02-05T12:06:43.567Z,5.80
2019-02-05T12:08:36.848Z,6.70
2019-02-05T12:09:36.884Z,5.20
2019-02-05T12:11:29.980Z,5.50
2019-02-05T12:12:30.231Z,7.30
2019-02-05T12:14:22.742Z,5.70
2019-02-05T12:15:22.526Z,6.60
2019-02-05T12:17:14.644Z,4.80
2019-02-05T12:18:14.673Z,6.10
2019-02-05T12:20:08.016Z,5.20
2019-02-05T12:21:06.978Z,5.20
2019-02-05T12:22:59.567Z,5.10
2019-02-05T12:23:59.559Z,5.50
2019-02-05T12:25:52.885Z,6.20
2019-02-05T12:26:52.692Z,7.30
2019-02-05T12:28:44.994Z,5.50
2019-02-05T12:29:45.229Z,6.00
2019-02-05T12:31:37.800Z,5.00
2019-02-05T12:32:37.543Z,5.90
2019-02-05T12:34:30.695Z,6.50
2019-02-05T12:35:30.938Z,5.40
2019-02-05T12:37:23.455Z,6.30
2019-02-05T12:38:23.021Z,5.30
2019-02-05T12:40:15.582Z,6.10
2019-02-05T12:41:15.560Z,5.70
2019-02-05T12:43:08.677Z,5.30
2019-02-05T12:44:08.425Z,5.10
2019-02-05T12:46:01.093Z,7.90
2019-02-05T12:47:01.102Z,5.70
2019-02-05T12:48:53.664Z,4.80
2019-02-05T12:49:53.452Z,7.80
2019-02-05T12:51:45.536Z,5.50
2019-02-05T12:52:45.786Z,5.00
2019-02-05T12:54:38.826Z,6.10
2019-02-05T12:55:38.666Z,6.30
2019-02-05T12:57:30.984Z,6.70
2019-02-05T12:58:30.941Z,5.20
2019-02-05T13:00:23.460Z,5.60
2019-02-05T13:01:23.296Z,5.90
2019-02-05T13:03:16.807Z,6.80
2019-02-05T13:04:16.631Z,7.10
2019-02-05T13:06:10.268Z,9.10
2019-02-05T13:07:10.020Z,6.80
2019-02-05T13:09:02.113Z,7.90
2019-02-05T13:10:02.330Z,7.70
2019-02-05T13:11:55.890Z,6.40
2019-02-05T13:12:55.668Z,8.00
2019-02-05T13:14:47.764Z,7.00
2019-02-05T13:15:48.000Z,6.70
2019-02-05T13:17:40.552Z,7.70
2019-02-05T13:18:40.079Z,9.40
2019-02-05T13:20:33.304Z,6.50
2019-02-05T13:21:32.648Z,6.00
2019-02-05T13:23:25.253Z,8.30
2019-02-05T13:24:24.988Z,6.70
2019-02-05T13:26:17.121Z,6.40
2019-02-05T13:27:17.107Z,10.10
2019-02-05T13:29:09.660Z,10.40
2019-02-05T13:30:09.650Z,8.90
2019-02-05T13:32:01.771Z,8.30
2019-02-05T13:33:01.764Z,8.20
2019-02-05T13:34:55.638Z,6.10
2019-02-05T13:35:55.343Z,6.50
2019-02-05T13:37:47.417Z,7.40
2019-02-05T13:38:47.657Z,7.50
2019-02-05T13:40:39.976Z,6.90
2019-02-05T13:41:39.978Z,6.50
2019-02-05T13:43:32.131Z,8.10
2019-02-05T13:44:32.318Z,6.30
2019-02-05T13:46:25.651Z,6.50
2019-02-05T13:47:25.409Z,6.80
2019-02-05T13:49:17.814Z,10.00
2019-02-05T13:50:17.759Z,8.70
2019-02-05T13:52:11.618Z,7.80
2019-02-05T13:53:11.393Z,6.50
2019-02-05T13:55:03.726Z,6.60
2019-02-05T13:56:05.341Z,8.10
2019-02-05T13:57:56.014Z,7.70
2019-02-05T13:58:56.019Z,6.90
2019-02-05T14:00:48.127Z,5.70
2019-02-05T14:01:48.131Z,6.40
2019-02-05T14:03:41.911Z,5.60
2019-02-05T14:04:41.707Z,5.40
2019-02-05T14:06:34.051Z,8.30
2019-02-05T14:07:34.056Z,6.40
2019-02-05T14:09:26.503Z,7.10
2019-02-05T14:10:26.230Z,6.20
2019-02-05T14:12:21.718Z,7.00
2019-02-05T14:13:18.824Z,8.90
2019-02-05T14:15:12.181Z,9.30
2019-02-05T14:16:11.905Z,7.70
2019-02-05T14:18:04.387Z,8.10
2019-02-05T14:19:04.416Z,6.50
2019-02-05T14:20:57.230Z,7.30
2019-02-05T14:21:56.995Z,8.10
2019-02-05T14:23:49.388Z,9.30
2019-02-05T14:24:49.263Z,10.50
2019-02-05T14:26:41.898Z,9.40
2019-02-05T14:27:41.655Z,9.10
2019-02-05T14:29:34.769Z,7.00
2019-02-05T14:30:34.747Z,9.30
2019-02-05T14:32:27.297Z,7.30
2019-02-05T14:33:27.306Z,6.90
2019-02-05T14:35:20.674Z,8.00
2019-02-05T14:36:20.654Z,7.20
2019-02-05T14:38:13.248Z,8.80
2019-02-05T14:39:12.756Z,11.80
2019-02-05T14:41:06.138Z,11.70
2019-02-05T14:42:06.330Z,10.40
2019-02-05T14:44:00.469Z,9.20
2019-02-05T14:45:00.013Z,10.20
2019-02-05T14:46:52.323Z,10.20
2019-02-05T14:47:52.571Z,11.30
2019-02-05T14:49:44.870Z,11.80
2019-02-05T14:50:44.902Z,11.00
2019-02-05T14:52:37.288Z,10.60
2019-02-05T14:53:36.981Z,11.10
2019-02-05T14:55:30.794Z,17.20
2019-02-05T14:56:30.584Z,15.50
2019-02-05T14:58:22.983Z,13.60
2019-02-05T14:59:22.676Z,14.20
2019-02-05T15:01:15.369Z,14.90
2019-02-05T15:02:15.436Z,15.40
2019-02-05T15:04:08.775Z,17.80
2019-02-05T15:05:08.530Z,16.60
2019-02-05T15:07:05.124Z,14.80
2019-02-05T15:08:01.117Z,17.00
2019-02-05T15:09:53.159Z,15.20
2019-02-05T15:10:53.176Z,16.90
2019-02-05T15:12:45.956Z,16.40
2019-02-05T15:13:45.714Z,13.50
2019-02-05T15:15:37.850Z,15.90
2019-02-05T15:16:38.066Z,14.40
2019-02-05T15:18:30.619Z,12.50
2019-02-05T15:19:30.135Z,14.20
2019-02-05T15:21:22.479Z,14.90
2019-02-05T15:22:22.502Z,12.70
2019-02-05T15:24:16.309Z,13.30
2019-02-05T15:25:15.850Z,13.40
2019-02-05T15:27:08.430Z,13.40
2019-02-05T15:28:08.160Z,12.30
2019-02-05T15:30:00.962Z,13.20
2019-02-05T15:31:00.713Z,13.80
2019-02-05T15:32:52.840Z,13.90
2019-02-05T15:33:53.116Z,12.50
2019-02-05T15:35:45.968Z,13.10
2019-02-05T15:36:45.163Z,14.60
2019-02-05T15:38:37.739Z,13.20
2019-02-05T15:39:37.483Z,12.00
2019-02-05T15:41:31.314Z,16.10
2019-02-05T15:42:30.874Z,17.20
2019-02-05T15:44:23.212Z,11.90
2019-02-05T15:45:23.174Z,14.70
2019-02-05T15:47:15.751Z,13.80
2019-02-05T15:48:15.503Z,18.30
2019-02-05T15:50:07.970Z,13.70
2019-02-05T15:51:07.929Z,13.50
2019-02-05T15:53:00.725Z,16.10
2019-02-05T15:54:00.267Z,17.50
2019-02-05T15:55:53.617Z,16.80
2019-02-05T15:56:53.643Z,14.90
2019-02-05T15:58:46.424Z,14.80
2019-02-05T15:59:46.253Z,15.70
2019-02-05T16:01:39.569Z,11.20
2019-02-05T16:02:39.339Z,11.90
2019-02-05T16:04:31.904Z,12.10
2019-02-05T16:05:31.658Z,12.30
2019-02-05T16:07:24.632Z,12.40
2019-02-05T16:08:24.567Z,12.90
2019-02-05T16:10:16.890Z,10.70
2019-02-05T16:11:16.903Z,13.10
2019-02-05T16:13:10.299Z,10.80
2019-02-05T16:14:10.034Z,14.70
2019-02-05T16:16:02.567Z,11.40
2019-02-05T16:17:02.374Z,12.60
2019-02-05T16:18:54.988Z,11.70
2019-02-05T16:19:54.693Z,13.00
2019-02-05T16:21:48.501Z,12.40
2019-02-05T16:22:48.279Z,12.40
2019-02-05T16:24:40.611Z,10.90
2019-02-05T16:25:40.345Z,12.40
2019-02-05T16:27:33.035Z,13.60
2019-02-05T16:28:32.932Z,14.50
2019-02-05T16:30:25.255Z,11.60
2019-02-05T16:31:27.818Z,9.20
2019-02-05T16:33:17.795Z,11.00
2019-02-05T16:34:17.346Z,12.70
2019-02-05T16:36:09.920Z,13.50
2019-02-05T16:37:09.958Z,11.90
2019-02-05T16:39:03.486Z,13.90
2019-02-05T16:40:03.284Z,11.40
2019-02-05T16:41:55.601Z,12.30
2019-02-05T16:42:55.395Z,11.20
2019-02-05T16:44:48.727Z,11.20
2019-02-05T16:45:48.445Z,13.30
2019-02-05T16:47:41.190Z,12.90
2019-02-05T16:48:40.962Z,12.30
2019-02-05T16:50:33.737Z,12.10
2019-02-05T16:51:33.466Z,11.80
2019-02-05T16:53:25.804Z,13.00
2019-02-05T16:54:25.840Z,10.20
2019-02-05T16:56:19.350Z,12.90
2019-02-05T16:57:18.912Z,12.60
2019-02-05T16:59:11.849Z,10.60
2019-02-05T17:00:11.286Z,13.20
2019-02-05T17:02:03.854Z,12.20
2019-02-05T17:03:03.809Z,10.50
2019-02-05T17:04:56.972Z,11.60
2019-02-05T17:05:57.193Z,12.40
2019-02-05T17:07:50.009Z,12.70
2019-02-05T17:08:49.777Z,13.60
2019-02-05T17:10:43.177Z,14.60
2019-02-05T17:11:43.159Z,13.30
2019-02-05T17:13:35.689Z,9.80
2019-02-05T17:14:35.687Z,11.90
2019-02-05T17:16:28.574Z,11.60
2019-02-05T17:17:28.624Z,10.00
2019-02-05T17:19:21.903Z,12.40
2019-02-05T17:20:21.930Z,13.20
2019-02-05T17:22:14.022Z,10.70
2019-02-05T17:23:14.012Z,12.40
2019-02-05T17:25:07.823Z,10.80
2019-02-05T17:26:07.618Z,11.70
2019-02-05T17:27:59.733Z,12.20
2019-02-05T17:28:59.718Z,10.80
2019-02-05T17:30:52.212Z,11.40
2019-02-05T17:31:52.054Z,14.20
2019-02-05T17:33:44.370Z,13.10
2019-02-05T17:34:44.363Z,13.40
2019-02-05T17:36:38.203Z,12.60
2019-02-05T17:37:37.961Z,12.80
2019-02-05T17:39:30.316Z,12.10
2019-02-05T17:40:30.268Z,10.80
2019-02-05T17:42:22.547Z,12.90
2019-02-05T17:43:22.599Z,12.20
2019-02-05T17:45:14.939Z,13.60
2019-02-05T17:46:14.932Z,11.60
2019-02-05T17:48:07.537Z,9.90
2019-02-05T17:49:07.269Z,10.00
2019-02-05T17:51:00.204Z,13.70
2019-02-05T17:51:59.365Z,10.80
2019-02-05T17:53:52.192Z,10.90
2019-02-05T17:54:51.662Z,12.70
2019-02-05T17:56:44.040Z,12.00
2019-02-05T17:57:44.279Z,10.00
2019-02-05T17:59:37.639Z,11.10
2019-02-05T18:00:37.599Z,12.20
2019-02-05T18:02:29.919Z,15.90
2019-02-05T18:03:29.899Z,13.90
2019-02-05T18:05:22.617Z,12.40
2019-02-05T18:06:22.592Z,11.80
2019-02-05T18:08:14.943Z,10.30
2019-02-05T18:09:14.928Z,12.10
2019-02-05T18:11:07.529Z,11.40
2019-02-05T18:12:07.044Z,12.90
2019-02-05T18:13:59.368Z,11.70
2019-02-05T18:14:59.585Z,11.70
2019-02-05T18:16:52.176Z,13.90
2019-02-05T18:17:51.713Z,15.40
2019-02-05T18:19:44.329Z,12.40
2019-02-05T18:20:44.020Z,12.20
2019-02-05T18:22:36.975Z,13.30
2019-02-05T18:23:36.516Z,11.00
2019-02-05T18:25:29.104Z,13.00
2019-02-05T18:26:29.088Z,13.40
2019-02-05T18:28:21.637Z,14.00
2019-02-05T18:29:21.433Z,12.80
2019-02-05T18:31:13.542Z,15.20
2019-02-05T18:32:13.780Z,12.20
2019-02-05T18:34:07.131Z,11.80
2019-02-05T18:35:06.908Z,12.00
2019-02-05T18:36:59.240Z,14.30
2019-02-05T18:37:59.217Z,13.40
2019-02-05T18:39:52.805Z,12.00
2019-02-05T18:40:52.579Z,14.20
2019-02-05T18:42:45.143Z,14.40
2019-02-05T18:43:44.896Z,15.60
2019-02-05T18:45:38.999Z,11.70
2019-02-05T18:46:38.898Z,12.80
2019-02-05T18:48:31.373Z,12.80